KHEY/HEY METAR and TAF weather

Enter ICAO airport designator
Station Type Date Time Source
KHEY METAR 2020/10/20 17:58 UTC NOAA

KHEY 201758Z AUTO 10009KT 10SM FEW060 29/18 A3009 RMK AO2 SLP189 T02880175 10290 20179 58013


Station Type Date Time Source
KHEY Decoded METAR 2020/10/20 17:58 UTC NOAA

Hanchey AHP / Ozark, AL, United States (KHEY) 31-21N 085-40W
Oct 20, 2020 - 01:58 PM EDT / 2020.10.20 1758 UTC
Wind: from the E (100 degrees) at 10 MPH (9 KT):0
Visibility: 10 mile(s):0
Sky conditions: mostly clear
Temperature: 83.8 F (28.8 C)
Dew Point: 63.5 F (17.5 C)
Relative Humidity: 50%
Pressure (altimeter): 30.09 in. Hg (1018 hPa)
Pressure tendency: 0.04 inches (1.3 hPa) lower than three hours ago
ob: KHEY 201758Z AUTO 10009KT 10SM FEW060 29/18 A3009 RMK AO2 SLP189 T02880175 10290 20179 58013
cycle: 18

Station Type Date Time Source
KHEY TAF UTC NOAA

Error!

Example: see airport list